Gulgong Post Office, New South Wales

2:05 PM AEDT on January 28, 2015 (GMT +1100)
Yarrawonga | Change Station
CLOSE
Current Station
Personal Weather Station
Location: Yarrawonga, NSW
Elevation: 1877 ft
Nearby Weather Stations

Elev 1877 ft 32.34 °S, 149.68 °E | Updated 35 seconds ago

Rain
Rain
64.7 °F
Feels Like 64.7 °F
N
1.0
Wind Variable Wind from NW
Gusts 3.0 mph

Today
High -- | Low -- °F
--% Chance of Precip.
Yesterday
High -- | Low -- °F
Precip. -- in
6:21 AM 8:07 PM
First Quarter, 60% visible
Pressure 29.86 in
Visibility 6.2 miles
Clouds Mostly Cloudy 4000 ft
Overcast 4600 ft
Dew Point 61 °F
Humidity 88%
Rainfall 0.09 in
Snow Depth Not available.
UV 4 out of 12
Pollen Not available.
Air Quality Not available.
Flu Activity Not available.
METAR YSDU 280300Z AUTO 11015KT 9999 // BKN040 OVC046 22/15 Q1011

More Conditions Fewer Conditions

Pressure 29.86 in
Visibility 6.2 miles
Clouds Mostly Cloudy 4000 ft
Overcast 4600 ft
Dew Point 61 °F
Humidity 88%
Rainfall 0.09 in
Snow Depth Not available.
UV 4 out of 12
Pollen Not available.
Air Quality Not available.
Flu Activity Not available.
METAR YSDU 280300Z AUTO 11015KT 9999 // BKN040 OVC046 22/15 Q1011

More Conditions Fewer Conditions

10-Day Weather Forecast

Almanac

Astronomy

Jan. 28, 2015 Rise Set
Actual Time
Civil Twilight
Nautical Twilight
Astronomical Twilight
Moon
Length of Visible Light
Length of Day
Tomorrow will be .
, % of the Moon is Illuminated

Today's Extremes

Country Highs Country Lows

Community

WunderPhotos

Upload Photos

1,791,064 photos uploaded!

WunderBlogs® & News

Nearby

Air Quality

  Air Quality AQ Index Pollutant
Not available.

Snow Depth

Station Depth Elevation

Earthquake Activity

City Distance Mag. Time & Date
Minimum magnitude displayed is 2.5.

Coastal Water Temperatures

Place Temperature

Nearby Weather Stations